YQDG weather

Quairading Airport
Western Australia, Australia

Public forecast

Using degrees Celsius for public forecast. Weather courtesy of forecast.io.

METAR (pilot weather report)

Closest report is Perth International Airport, 73.1 nm (135.3 km) W. Retrieved 2019/03/23 02:00 UTC (7 minutes ago):

YPPH 230200Z 12013KT CAVOK 21/08 Q1018 NOSIG

TAF (pilot weather forecast)

Forecast is more than 12 hours old.

Closest forecast is Perth International Airport, 73.1 nm (135.3 km) W. Retrieved 2019/03/22 00:00 UTC (1 day ago):

TAF YPPH 222316Z 2300/2406 12012KT CAVOK FM231200 18008KT CAVOK FM240000 14008KT CAVOK